Skip Navigation Links Skip Navigation Links

Current Weather

Chino, Calif.

For information only: do not use for flight planning or navigation.
Latest weather
Observation time Tuesday, October 19, 2021 1:53 AM PDT
Local time Tuesday, October 19, 2021 2:48 AM PDT
Flight conditions Visual Meteorological Conditions
Winds
Wind direction North-Northeast (20°)
Wind speed 3 mph
Visibility 10 mi.
Sky condition
Ceiling unlimited
Sky clear
Temperature 49°F
Dewpoint 44°F
Altimeter 30.01 in.Hg
Pressure change last 3 hours0.00 in.Hg
Pressure falling, then rising
Derived measurements
Relative humidity 83%
Wind chill 48°F
Density altitude 21 ft.
Sea-level pressure 30.00 in.Hg
Remarks
Fully automated report.
Automated weather observing station with precipitation discriminator.
METAR KCNO 190853Z AUTO 02003KT 10SM CLR 09/07 A3001 RMK AO2 SLP160 T00940067 55000

Settings

Location code

InnerDrive.Weather 4.0.6770.0 Release CLR 4.0.30319.42000
Copyright ©2018 Inner Drive Technology. All rights reserved. Portions Copyright ©1986-2018 David Braverman.

Find weather

Site navigation


Skip Navigation Links

Place info

Page info

PayPal - The safer, easier way to pay online!

Return home.

Copyright ©2021 Inner Drive Technology. Purveyors of fine, hand-crafted computer software. Page printed 2021-10-19T09:48:47 UTC.